Time;durP1;ratioP1;P1;durP2;ratioP2;P2;SDS_P1;SDS_P2;PMS_P1;PMS_P2;Temp;Humidity;BMP_temperature;BMP_pressure;BME280_temperature;BME280_humidity;BME280_pressure;Samples;Min_cycle;Max_cycle;Signal;HPM_P1;HPM_P2
2021/01/15 00:01:00;;;;;;;5.55;3.75;;;1.50;77.90;;;;;;5004850;28;20022;-85
2021/01/15 00:03:26;;;;;;;7.53;4.95;;;1.50;77.80;;;;;;4997334;28;20381;-87
2021/01/15 00:05:52;;;;;;;6.35;4.47;;;1.50;77.70;;;;;;5009877;28;20037;-87
2021/01/15 00:08:17;;;;;;;6.45;3.80;;;1.50;77.60;;;;;;5011598;28;20117;-87
2021/01/15 00:10:43;;;;;;;5.32;4.07;;;1.50;77.50;;;;;;5011724;28;20084;-88
2021/01/15 00:13:08;;;;;;;6.30;4.20;;;1.60;77.40;;;;;;4996455;28;20018;-89
2021/01/15 00:15:34;;;;;;;7.28;5.00;;;1.50;77.20;;;;;;5014698;28;20025;-88
2021/01/15 00:17:59;;;;;;;5.32;4.10;;;1.60;77.10;;;;;;4999800;28;20033;-88
2021/01/15 00:20:25;;;;;;;5.15;3.13;;;1.60;77.00;;;;;;5004090;28;20088;-88
2021/01/15 00:22:50;;;;;;;5.18;3.80;;;1.70;77.00;;;;;;5017840;28;20029;-88
2021/01/15 00:25:16;;;;;;;6.03;3.97;;;1.70;76.80;;;;;;5001798;28;20030;-88
2021/01/15 00:27:42;;;;;;;4.63;3.55;;;1.70;76.60;;;;;;5020889;28;20030;-88
2021/01/15 00:30:09;;;;;;;5.00;3.30;;;1.80;76.50;;;;;;5021291;28;20164;-88
2021/01/15 00:32:36;;;;;;;4.88;3.55;;;1.80;76.30;;;;;;4997156;28;20022;-88
2021/01/15 00:35:04;;;;;;;4.78;3.40;;;1.80;76.20;;;;;;5021530;28;20044;-88
2021/01/15 00:37:29;;;;;;;4.90;3.38;;;1.90;76.20;;;;;;5045748;28;20037;-87
2021/01/15 00:39:55;;;;;;;4.70;2.90;;;1.90;76.00;;;;;;5018261;28;20025;-88
2021/01/15 00:42:20;;;;;;;5.97;3.75;;;2.00;76.00;;;;;;5029541;28;20022;-88
2021/01/15 00:44:46;;;;;;;4.72;3.25;;;2.00;75.80;;;;;;5027128;28;20029;-87
2021/01/15 00:47:12;;;;;;;5.18;3.42;;;2.00;75.80;;;;;;5024333;28;20028;-88
2021/01/15 00:49:38;;;;;;;4.63;3.00;;;2.00;75.60;;;;;;5022744;28;20087;-87
2021/01/15 00:52:03;;;;;;;4.00;2.97;;;2.10;75.60;;;;;;5010428;28;20002;-88
2021/01/15 00:54:29;;;;;;;4.55;3.45;;;2.10;75.50;;;;;;5011315;28;20042;-88
2021/01/15 00:57:04;;;;;;;5.45;3.80;;;2.10;75.30;;;;;;5023536;28;20117;-88
2021/01/15 00:59:30;;;;;;;6.07;3.53;;;2.10;74.90;;;;;;5006991;28;20126;-88
2021/01/15 01:01:55;;;;;;;4.80;3.47;;;2.10;74.90;;;;;;5022009;28;20025;-87
2021/01/15 01:04:21;;;;;;;5.35;3.38;;;2.20;74.90;;;;;;5015455;28;20476;-87
2021/01/15 01:06:46;;;;;;;4.97;3.75;;;2.20;74.80;;;;;;5016112;28;20026;-88
2021/01/15 01:09:12;;;;;;;5.00;3.25;;;2.20;74.60;;;;;;5018442;28;20467;-87
2021/01/15 01:11:38;;;;;;;5.22;3.70;;;2.20;74.50;;;;;;5013798;28;20022;-88
2021/01/15 01:14:04;;;;;;;4.93;3.60;;;2.20;74.50;;;;;;5013019;28;20010;-88
2021/01/15 01:16:33;;;;;;;6.28;4.10;;;2.20;74.50;;;;;;5025134;28;20113;-88
2021/01/15 01:18:59;;;;;;;5.55;4.07;;;2.10;74.20;;;;;;5015371;28;20276;-89
2021/01/15 01:21:25;;;;;;;5.90;4.28;;;2.10;74.10;;;;;;4996540;28;20057;-88
2021/01/15 01:23:52;;;;;;;5.07;3.40;;;2.10;74.10;;;;;;5023258;28;20010;-87
2021/01/15 01:26:18;;;;;;;5.80;3.95;;;2.10;74.20;;;;;;5036483;28;20022;-88
2021/01/15 01:28:45;;;;;;;5.93;3.88;;;2.10;74.20;;;;;;5024636;28;20037;-88
2021/01/15 01:31:12;;;;;;;5.45;3.70;;;2.10;74.20;;;;;;4991243;28;20018;-88
2021/01/15 01:33:38;;;;;;;6.07;4.25;;;2.10;74.30;;;;;;5022576;28;20014;-88
2021/01/15 01:36:08;;;;;;;6.50;4.65;;;2.10;74.20;;;;;;5010584;28;20025;-88
2021/01/15 01:38:34;;;;;;;5.05;3.33;;;2.10;74.30;;;;;;5019054;28;20026;-88
2021/01/15 01:41:00;;;;;;;6.00;3.70;;;2.10;74.30;;;;;;4993907;28;20026;-87
2021/01/15 01:43:26;;;;;;;5.60;4.07;;;2.10;74.30;;;;;;5015153;28;20033;-88
2021/01/15 01:45:52;;;;;;;5.25;3.88;;;2.10;74.30;;;;;;5028715;28;20040;-87
2021/01/15 01:48:19;;;;;;;5.68;4.25;;;2.10;74.30;;;;;;5015680;28;20036;-88
2021/01/15 01:50:46;;;;;;;5.65;3.95;;;2.10;74.30;;;;;;5013452;28;20030;-87
2021/01/15 01:53:15;;;;;;;6.68;4.35;;;2.10;74.30;;;;;;5015086;28;20037;-88
2021/01/15 01:55:44;;;;;;;6.15;4.13;;;2.20;74.40;;;;;;5013124;28;20030;-88
2021/01/15 01:58:15;;;;;;;5.60;3.80;;;2.00;74.30;;;;;;4989355;28;20045;-87
2021/01/15 02:00:42;;;;;;;5.40;3.95;;;2.20;74.40;;;;;;5010859;28;20026;-87
2021/01/15 02:03:07;;;;;;;4.68;3.58;;;2.20;74.40;;;;;;5013480;28;20022;-88
2021/01/15 02:05:33;;;;;;;5.90;3.75;;;2.20;74.40;;;;;;5012351;28;20080;-88
2021/01/15 02:07:59;;;;;;;5.63;3.83;;;2.20;74.50;;;;;;5001890;28;20029;-88
2021/01/15 02:11:06;;;;;;;5.15;3.70;;;2.20;74.40;;;;;;5002932;28;20030;-88
2021/01/15 02:13:35;;;;;;;5.68;4.18;;;2.20;74.50;;;;;;4997196;28;20042;-88
2021/01/15 02:16:09;;;;;;;6.07;4.43;;;2.20;74.50;;;;;;5009598;28;20490;-89
2021/01/15 02:18:41;;;;;;;5.22;4.22;;;2.20;74.50;;;;;;5004175;28;20270;-87
2021/01/15 02:21:15;;;;;;;6.25;4.03;;;2.20;74.50;;;;;;5010204;28;20021;-88
2021/01/15 02:23:44;;;;;;;5.85;4.03;;;2.20;74.60;;;;;;5003939;28;20029;-89
2021/01/15 02:26:44;;;;;;;5.50;3.58;;;2.20;74.60;;;;;;5004721;28;20017;-88
2021/01/15 02:29:18;;;;;;;5.53;4.18;;;2.20;74.70;;;;;;5011352;28;20030;-88
2021/01/15 02:31:44;;;;;;;5.70;3.65;;;2.20;74.60;;;;;;5011247;28;20176;-88
2021/01/15 02:34:36;;;;;;;4.25;3.13;;;2.20;74.60;;;;;;5013475;28;20544;-88
2021/01/15 02:37:32;;;;;;;6.07;4.65;;;2.20;74.70;;;;;;5004301;28;20468;-88
2021/01/15 02:40:04;;;;;;;5.50;4.00;;;2.20;74.70;;;;;;4982392;28;20054;-89
2021/01/15 02:42:35;;;;;;;5.40;4.05;;;2.20;74.70;;;;;;5003544;28;20022;-89
2021/01/15 02:45:03;;;;;;;6.60;4.50;;;2.20;74.70;;;;;;4993323;28;20571;-89
2021/01/15 02:47:53;;;;;;;6.38;4.40;;;2.20;74.80;;;;;;5008162;28;20115;-90
2021/01/15 02:50:23;;;;;;;5.78;4.25;;;2.20;74.90;;;;;;4999699;28;20032;-88
2021/01/15 02:52:49;;;;;;;5.82;3.70;;;2.10;74.80;;;;;;5005141;28;20030;-88
2021/01/15 02:55:15;;;;;;;6.78;4.57;;;2.20;74.90;;;;;;4992871;28;20109;-88
2021/01/15 02:57:41;;;;;;;7.50;4.68;;;2.20;74.90;;;;;;5016894;28;20038;-88
2021/01/15 03:00:19;;;;;;;6.32;4.88;;;2.20;75.00;;;;;;4986720;28;20018;-88
2021/01/15 03:02:45;;;;;;;6.70;4.65;;;2.10;75.00;;;;;;5010120;28;20022;-87
2021/01/15 03:05:21;;;;;;;6.45;4.32;;;2.20;75.20;;;;;;5006806;28;20030;-89
2021/01/15 03:07:49;;;;;;;7.88;5.63;;;2.10;75.20;;;;;;4993661;28;20017;-88
2021/01/15 03:10:20;;;;;;;5.90;4.30;;;2.10;75.30;;;;;;5008983;28;20041;-89
2021/01/15 03:12:47;;;;;;;6.38;4.72;;;2.10;75.40;;;;;;4998886;28;20029;-88
2021/01/15 03:15:14;;;;;;;6.80;4.40;;;2.10;75.50;;;;;;5011059;28;20125;-87
2021/01/15 03:17:46;;;;;;;8.18;5.50;;;2.10;75.60;;;;;;4991393;28;20072;-87
2021/01/15 03:20:13;;;;;;;7.75;4.43;;;2.10;76.50;;;;;;5016283;28;20034;-87
2021/01/15 03:22:44;;;;;;;6.40;4.65;;;2.10;76.00;;;;;;4991304;28;20041;-87
2021/01/15 03:25:11;;;;;;;5.90;4.07;;;2.10;76.10;;;;;;4983494;28;20118;-87
2021/01/15 03:27:48;;;;;;;8.73;5.25;;;2.10;76.10;;;;;;4999659;28;20042;-87
2021/01/15 03:30:30;;;;;;;6.20;4.13;;;2.20;76.30;;;;;;5000548;28;20026;-87
2021/01/15 03:33:02;;;;;;;6.32;4.47;;;2.20;76.30;;;;;;4993109;28;20014;-87
2021/01/15 03:35:29;;;;;;;8.18;5.43;;;2.20;76.30;;;;;;4992824;28;20033;-87
2021/01/15 03:38:07;;;;;;;6.25;4.75;;;2.10;76.40;;;;;;4983720;28;20492;-87
2021/01/15 03:40:35;;;;;;;4.88;3.38;;;2.10;76.60;;;;;;5008936;28;20025;-87
2021/01/15 03:43:09;;;;;;;7.20;5.22;;;2.10;76.70;;;;;;5011908;28;20383;-88
2021/01/15 03:45:34;;;;;;;7.00;4.82;;;2.10;76.70;;;;;;5012422;28;20034;-88
2021/01/15 03:48:00;;;;;;;6.78;4.15;;;2.10;76.90;;;;;;5002385;28;20041;-88
2021/01/15 03:50:25;;;;;;;6.10;4.30;;;2.20;77.00;;;;;;5008850;28;20101;-89
2021/01/15 03:52:52;;;;;;;8.27;5.22;;;2.20;77.00;;;;;;5007338;28;20038;-88
2021/01/15 03:55:18;;;;;;;6.20;4.72;;;2.20;77.10;;;;;;4997761;28;20113;-88
2021/01/15 03:57:45;;;;;;;7.63;5.03;;;2.20;77.20;;;;;;4975246;28;20165;-87
2021/01/15 04:00:11;;;;;;;8.02;5.20;;;2.20;77.30;;;;;;4991116;28;20544;-88
2021/01/15 04:02:37;;;;;;;8.82;5.35;;;2.20;77.40;;;;;;5008151;28;20108;-87
2021/01/15 04:05:03;;;;;;;8.93;5.22;;;2.20;77.40;;;;;;5009765;28;20095;-88
2021/01/15 04:07:29;;;;;;;7.85;5.70;;;2.20;77.50;;;;;;5010375;28;20092;-87
2021/01/15 04:09:55;;;;;;;7.07;4.78;;;2.10;77.50;;;;;;4992617;28;20041;-87
2021/01/15 04:12:23;;;;;;;7.53;4.93;;;2.10;77.60;;;;;;5009363;28;20088;-87
2021/01/15 04:14:49;;;;;;;5.93;4.07;;;2.10;77.70;;;;;;5008753;28;20054;-87
2021/01/15 04:17:14;;;;;;;7.45;5.60;;;2.10;77.80;;;;;;5010568;28;20029;-87
2021/01/15 04:19:40;;;;;;;7.93;5.00;;;2.10;77.80;;;;;;5002979;28;20064;-87
2021/01/15 04:22:05;;;;;;;8.30;5.72;;;2.10;77.90;;;;;;5008641;28;20050;-88
2021/01/15 04:24:31;;;;;;;8.15;5.03;;;2.10;77.90;;;;;;5013963;28;20018;-87
2021/01/15 04:26:58;;;;;;;6.85;5.00;;;2.10;78.00;;;;;;5003971;28;20065;-88
2021/01/15 04:29:24;;;;;;;7.28;5.22;;;2.10;78.00;;;;;;4986633;28;20026;-88
2021/01/15 04:31:51;;;;;;;7.78;5.53;;;2.10;78.10;;;;;;4985084;28;20072;-88
2021/01/15 04:34:17;;;;;;;5.95;4.32;;;2.10;78.10;;;;;;5004167;28;20034;-88
2021/01/15 04:36:43;;;;;;;6.70;4.70;;;2.20;78.00;;;;;;5010552;28;20060;-88
2021/01/15 04:39:09;;;;;;;6.25;4.25;;;2.20;78.70;;;;;;5005164;28;20049;-88
2021/01/15 04:41:35;;;;;;;6.05;4.43;;;2.20;78.00;;;;;;5006481;28;20464;-89
2021/01/15 04:44:01;;;;;;;7.78;5.03;;;2.20;77.90;;;;;;5010707;28;20029;-89
2021/01/15 04:46:29;;;;;;;7.47;4.57;;;2.20;77.90;;;;;;5010993;28;20072;-88
2021/01/15 04:48:57;;;;;;;6.90;4.50;;;2.20;77.90;;;;;;5011680;28;20471;-88
2021/01/15 04:51:25;;;;;;;7.10;5.10;;;2.20;77.90;;;;;;5004679;28;20032;-90
2021/01/15 04:54:02;;;;;;;7.28;4.85;;;2.20;77.90;;;;;;4989755;28;20042;-87
2021/01/15 04:56:55;;;;;;;7.97;4.80;;;2.20;78.00;;;;;;5003185;28;20132;-88
2021/01/15 04:59:21;;;;;;;;;;;2.20;78.10;;;;;;5004555;28;20038;-88
2021/01/15 05:01:50;;;;;;;8.73;5.70;;;2.20;78.10;;;;;;5004993;28;19909;-89
2021/01/15 05:04:18;;;;;;;10.32;6.82;;;2.10;78.20;;;;;;5001446;28;20026;-88
2021/01/15 05:06:48;;;;;;;8.05;5.53;;;2.10;78.40;;;;;;5010070;28;20025;-89
2021/01/15 05:09:24;;;;;;;8.38;5.40;;;2.10;78.40;;;;;;4993065;28;20035;-90
2021/01/15 05:11:51;;;;;;;7.80;5.40;;;2.10;79.10;;;;;;5011024;28;20065;-88
2021/01/15 05:14:18;;;;;;;8.00;5.88;;;2.10;78.50;;;;;;4995066;28;20030;-87
2021/01/15 05:16:45;;;;;;;7.70;5.28;;;2.10;78.60;;;;;;4990496;28;20014;-87
2021/01/15 05:19:12;;;;;;;8.43;4.97;;;2.10;78.50;;;;;;5009525;28;20057;-85
2021/01/15 05:21:39;;;;;;;8.63;5.80;;;2.10;78.50;;;;;;4995202;28;20498;-87
2021/01/15 05:24:06;;;;;;;8.43;5.43;;;2.10;78.60;;;;;;4992831;28;20120;-87
2021/01/15 05:26:39;;;;;;;8.02;5.20;;;2.10;78.60;;;;;;4992274;28;20030;-87
2021/01/15 05:29:06;;;;;;;6.95;4.65;;;2.10;78.70;;;;;;5011055;28;20038;-88
2021/01/15 05:31:55;;;;;;;8.60;5.22;;;2.20;78.70;;;;;;5010187;28;20534;-88
2021/01/15 05:34:26;;;;;;;9.20;5.90;;;2.20;78.70;;;;;;5006453;28;20482;-88
2021/01/15 05:36:53;;;;;;;8.13;5.55;;;2.10;78.70;;;;;;5014421;28;20014;-88
2021/01/15 05:39:19;;;;;;;10.50;6.22;;;2.10;78.90;;;;;;5014690;28;20030;-87
2021/01/15 05:41:46;;;;;;;7.75;5.30;;;2.10;79.00;;;;;;5028023;28;20030;-88
2021/01/15 05:44:23;;;;;;;6.10;4.20;;;2.10;79.00;;;;;;5028378;28;20033;-88
2021/01/15 05:46:49;;;;;;;6.00;4.35;;;2.10;79.60;;;;;;5003737;28;20057;-89
2021/01/15 05:49:16;;;;;;;7.88;5.40;;;2.10;79.00;;;;;;5012176;28;20037;-88
2021/01/15 05:51:42;;;;;;;8.40;5.63;;;2.20;79.00;;;;;;4998087;28;20022;-88
2021/01/15 05:54:09;;;;;;;8.15;5.22;;;2.20;79.00;;;;;;5016539;28;20034;-88
2021/01/15 05:56:43;;;;;;;10.25;6.28;;;2.20;79.00;;;;;;5010118;28;20015;-89
2021/01/15 05:59:16;;;;;;;8.20;5.90;;;2.20;79.00;;;;;;5023245;28;20017;-88
2021/01/15 06:01:43;;;;;;;9.23;6.32;;;2.10;79.00;;;;;;5016134;28;20034;-88
2021/01/15 06:04:09;;;;;;;7.55;5.28;;;2.20;79.00;;;;;;5027181;28;20064;-88
2021/01/15 06:06:35;;;;;;;9.00;5.85;;;2.20;79.10;;;;;;5015844;28;20030;-88
2021/01/15 06:09:08;;;;;;;10.30;6.57;;;2.10;79.10;;;;;;5031367;28;20037;-88
2021/01/15 06:11:37;;;;;;;8.02;5.32;;;2.10;79.20;;;;;;5028794;28;20044;-89
2021/01/15 06:14:25;;;;;;;7.57;5.05;;;2.20;79.20;;;;;;5017067;28;20009;-89
2021/01/15 06:17:09;;;;;;;8.80;5.60;;;2.20;79.30;;;;;;5016876;28;20029;-90
2021/01/15 06:19:48;;;;;;;8.50;5.90;;;2.20;79.40;;;;;;5015495;28;20036;-88
2021/01/15 06:22:36;;;;;;;8.27;5.18;;;2.20;79.40;;;;;;5024876;28;20018;-89
2021/01/15 06:25:25;;;;;;;6.60;4.57;;;2.10;79.40;;;;;;5007367;28;20056;-88
2021/01/15 06:27:55;;;;;;;9.38;5.85;;;2.20;79.50;;;;;;4989685;28;20034;-89
2021/01/15 06:30:26;;;;;;;9.40;6.10;;;2.20;79.60;;;;;;5003155;28;20043;-88
2021/01/15 06:32:53;;;;;;;9.13;6.03;;;2.10;79.70;;;;;;4997924;28;20021;-88
2021/01/15 06:35:30;;;;;;;10.10;5.93;;;2.10;79.80;;;;;;5014087;28;20072;-89
2021/01/15 06:38:10;;;;;;;8.85;5.95;;;2.20;80.50;;;;;;4993582;28;20046;-91
2021/01/15 06:40:41;;;;;;;8.48;5.65;;;2.20;79.90;;;;;;4992667;28;20018;-89
2021/01/15 06:43:27;;;;;;;11.05;6.15;;;2.20;79.80;;;;;;5013413;28;20073;-90
2021/01/15 06:45:54;;;;;;;11.13;5.88;;;2.20;79.70;;;;;;4997319;28;20029;-90
2021/01/15 06:48:31;;;;;;;9.93;6.65;;;2.20;79.80;;;;;;5006571;28;20026;-90
2021/01/15 06:50:57;;;;;;;9.80;5.82;;;2.20;79.90;;;;;;5010751;28;20045;-90
2021/01/15 06:53:31;;;;;;;7.93;5.28;;;2.20;80.00;;;;;;5013442;28;20040;-90
2021/01/15 06:55:57;;;;;;;9.85;6.43;;;2.20;80.60;;;;;;5012407;28;20028;-89
2021/01/15 06:58:39;;;;;;;11.48;7.25;;;2.20;80.00;;;;;;5010629;28;20034;-90
2021/01/15 07:01:29;;;;;;;9.13;5.90;;;2.20;80.00;;;;;;5013769;28;20065;-92
2021/01/15 07:04:19;;;;;;;9.93;6.40;;;2.20;80.10;;;;;;4998561;28;20026;-90
2021/01/15 07:07:11;;;;;;;10.10;6.70;;;2.20;80.10;;;;;;5014116;28;20121;-90
2021/01/15 07:09:48;;;;;;;9.90;6.40;;;2.30;80.10;;;;;;4993977;28;20031;-89
2021/01/15 07:12:15;;;;;;;7.30;4.78;;;2.30;80.00;;;;;;5006627;28;20018;-90
2021/01/15 07:14:49;;;;;;;7.97;4.65;;;2.30;80.00;;;;;;5031316;28;20108;-90
2021/01/15 07:17:37;;;;;;;13.02;7.95;;;2.30;80.00;;;;;;4990058;28;20035;-89
2021/01/15 07:20:07;;;;;;;10.18;6.82;;;2.30;80.00;;;;;;5006497;28;20038;-88
2021/01/15 07:22:50;;;;;;;13.13;7.35;;;2.30;80.10;;;;;;4986821;28;20068;-88
2021/01/15 07:25:17;;;;;;;9.85;6.20;;;2.30;80.10;;;;;;5003830;28;20062;-89
2021/01/15 07:27:43;;;;;;;12.65;7.95;;;2.30;80.10;;;;;;4995683;28;20087;-87
2021/01/15 07:30:20;;;;;;;12.23;7.30;;;2.30;80.20;;;;;;4996914;28;20085;-85
2021/01/15 07:32:49;;;;;;;9.93;5.80;;;2.30;80.20;;;;;;4999448;28;20026;-85
2021/01/15 07:35:16;;;;;;;12.18;7.10;;;2.30;80.20;;;;;;5015099;28;20021;-86
2021/01/15 07:37:42;;;;;;;10.18;5.93;;;2.30;80.20;;;;;;5027282;28;20034;-86
2021/01/15 07:40:11;;;;;;;9.18;5.47;;;2.40;80.20;;;;;;5013962;28;20002;-91
2021/01/15 07:43:00;;;;;;;10.93;6.20;;;2.40;80.20;;;;;;5060171;22;20042;-96
2021/01/15 07:53:27;;;;;;;7.93;4.93;;;2.40;80.10;;;;;;5648958;22;20088;-96
2021/01/15 08:25:17;;;;;;;8.45;5.78;;;2.60;80.00;;;;;;5029076;28;20057;-96
2021/01/15 08:27:46;;;;;;;10.02;6.45;;;2.60;79.90;;;;;;5025892;28;20042;-96
2021/01/15 08:30:12;;;;;;;7.93;5.18;;;2.60;79.90;;;;;;5018719;28;20124;-96
2021/01/15 08:32:40;;;;;;;8.18;5.25;;;2.70;80.00;;;;;;5007098;28;20053;-95
2021/01/15 08:35:25;;;;;;;8.95;4.95;;;2.80;80.00;;;;;;5006731;28;20113;-96
2021/01/15 08:38:01;;;;;;;9.23;6.18;;;2.70;79.80;;;;;;5010374;28;20034;-96
2021/01/15 08:58:51;;;;;;;18.73;10.50;;;2.70;79.60;;;;;;5218369;22;20034;-95
2021/01/15 09:07:59;;;;;;;;;;;;;;;;;;;;;
2021/01/15 09:13:58;;;;;;;12.05;6.80;;;2.70;79.60;;;;;;5000282;28;20049;-96
2021/01/15 09:17:02;;;;;;;9.45;6.32;;;2.70;79.60;;;;;;4984895;28;20057;-96
2021/01/15 09:19:35;;;;;;;8.35;5.57;;;2.80;79.70;;;;;;4985875;28;20173;-94
2021/01/15 09:22:15;;;;;;;7.38;5.00;;;2.70;79.60;;;;;;4999420;28;20550;-96
2021/01/15 09:24:43;;;;;;;7.53;5.17;;;2.70;79.60;;;;;;4996664;28;20061;-96
2021/01/15 09:27:57;;;;;;;8.50;5.38;;;2.70;79.60;;;;;;5003622;28;20285;-95
2021/01/15 09:30:28;;;;;;;8.90;5.88;;;2.70;79.60;;;;;;4990854;28;20034;-96
2021/01/15 09:33:11;;;;;;;9.32;5.28;;;2.80;79.50;;;;;;5185763;22;20045;-96
2021/01/15 09:36:17;;;;;;;10.15;5.57;;;2.80;79.50;;;;;;5026415;28;20048;-95
2021/01/15 09:39:29;;;;;;;;;;;;;;;;;;;;;
2021/01/15 09:42:25;;;;;;;7.32;4.68;;;2.80;79.40;;;;;;5036737;28;20049;-96
2021/01/15 10:10:37;;;;;;;7.43;5.32;;;2.90;79.40;;;;;;4996156;28;20061;-94
2021/01/15 10:13:05;;;;;;;7.55;4.93;;;2.90;79.30;;;;;;4987925;28;20022;-96
2021/01/15 11:00:16;;;;;;;5.43;3.85;;;3.20;78.50;;;;;;4867068;29;20113;-96
2021/01/15 11:51:10;;;;;;;;;;;;;;;;;;;;;
2021/01/15 12:27:20;;;;;;;9.20;6.20;;;3.30;77.40;;;;;;4988508;28;20112;-92
2021/01/15 12:29:47;;;;;;;10.13;6.57;;;3.20;77.40;;;;;;4985294;28;20026;-91
2021/01/15 12:32:15;;;;;;;9.48;5.80;;;3.30;77.40;;;;;;4993925;28;20121;-93
2021/01/15 12:34:41;;;;;;;9.95;5.68;;;3.30;77.50;;;;;;4992391;28;20042;-93
2021/01/15 12:37:07;;;;;;;10.40;6.78;;;3.30;78.10;;;;;;4982492;28;20062;-92
2021/01/15 12:40:41;;;;;;;;;;;;;;;;;;;;;
2021/01/15 12:54:19;;;;;;;9.05;6.05;;;3.40;77.70;;;;;;4991210;28;20109;-94
2021/01/15 12:56:47;;;;;;;8.35;5.75;;;3.40;77.50;;;;;;4989059;28;20122;-94
2021/01/15 12:59:13;;;;;;;9.35;5.80;;;3.40;77.40;;;;;;4993620;28;20054;-95
2021/01/15 13:01:43;;;;;;;8.90;6.03;;;3.40;77.40;;;;;;4982755;28;20031;-93
2021/01/15 13:04:09;;;;;;;8.57;6.20;;;3.40;77.40;;;;;;4978243;28;20050;-95
2021/01/15 13:06:42;;;;;;;7.60;5.53;;;3.50;77.40;;;;;;4984308;28;20023;-94
2021/01/15 13:09:40;;;;;;;7.05;4.63;;;3.50;77.40;;;;;;4988824;28;20024;-96
2021/01/15 13:13:01;;;;;;;6.95;4.93;;;3.50;77.40;;;;;;5007305;28;20073;-96
2021/01/15 13:15:29;;;;;;;9.00;6.07;;;3.70;77.50;;;;;;4968960;28;20038;-94
2021/01/15 13:18:25;;;;;;;;;;;;;;;;;;;;;
2021/01/15 13:21:50;;;;;;;6.65;4.15;;;3.50;77.50;;;;;;4994195;28;20035;-93
2021/01/15 13:27:17;;;;;;;9.02;6.28;;;3.50;77.40;;;;;;4965981;28;20155;-95
2021/01/15 13:30:27;;;;;;;;;;;;;;;;;;;;;
2021/01/15 13:33:44;;;;;;;;;;;;;;;;;;;;;
2021/01/15 13:36:22;;;;;;;7.43;5.43;;;3.50;77.40;;;;;;4981069;28;20070;-94
2021/01/15 13:39:00;;;;;;;7.78;5.53;;;3.60;77.40;;;;;;4982125;28;20031;-94
2021/01/15 13:41:51;;;;;;;7.78;5.32;;;3.60;77.40;;;;;;5002409;28;20077;-94
2021/01/15 13:44:27;;;;;;;;;;;;;;;;;;;;;
2021/01/15 13:47:01;;;;;;;11.02;6.25;;;3.60;77.40;;;;;;4994538;28;20022;-95
2021/01/15 13:49:40;;;;;;;;;;;;;;;;;;;;;
2021/01/15 13:52:06;;;;;;;7.50;4.80;;;3.60;77.40;;;;;;4994093;28;20026;-92
2021/01/15 13:54:42;;;;;;;7.97;5.60;;;3.50;77.50;;;;;;4993752;28;20117;-92
2021/01/15 13:57:08;;;;;;;7.15;5.20;;;3.50;77.50;;;;;;4976606;28;20022;-91
2021/01/15 13:59:34;;;;;;;9.57;6.47;;;3.70;77.60;;;;;;4976758;28;20521;-91
2021/01/15 14:02:02;;;;;;;10.43;6.15;;;3.60;77.50;;;;;;4977611;28;20038;-93
2021/01/15 14:04:30;;;;;;;8.35;5.63;;;3.50;77.50;;;;;;4975856;28;20045;-91
2021/01/15 14:07:00;;;;;;;7.28;5.25;;;3.60;77.60;;;;;;4976690;28;20117;-92
2021/01/15 14:09:27;;;;;;;8.32;6.07;;;3.60;77.60;;;;;;4977214;28;20025;-91
2021/01/15 14:11:54;;;;;;;10.85;6.93;;;3.50;77.50;;;;;;4978557;28;20033;-94
2021/01/15 14:14:33;;;;;;;8.27;5.47;;;3.50;77.50;;;;;;4979211;28;20026;-92
2021/01/15 14:17:03;;;;;;;7.68;5.38;;;3.50;77.60;;;;;;4998268;28;20032;-95
2021/01/15 14:19:31;;;;;;;8.23;4.80;;;3.60;77.60;;;;;;4978531;28;20457;-95
2021/01/15 14:22:20;;;;;;;;;;;;;;;;;;;;;
2021/01/15 14:27:54;;;;;;;10.70;6.50;;;3.50;77.80;;;;;;4927286;29;20096;-95
2021/01/15 14:30:49;;;;;;;9.05;5.78;;;3.50;77.80;;;;;;4997384;28;20026;-95
2021/01/15 14:33:17;;;;;;;8.13;5.30;;;3.50;77.90;;;;;;5020176;28;20007;-96
2021/01/15 14:35:43;;;;;;;9.30;6.32;;;3.50;77.80;;;;;;5002411;28;20015;-94
2021/01/15 14:38:28;;;;;;;8.20;5.43;;;3.50;77.80;;;;;;5003015;28;20022;-96
2021/01/15 14:40:57;;;;;;;7.90;5.60;;;3.50;77.90;;;;;;5002749;28;20018;-93
2021/01/15 14:51:05;;;;;;;;;;;;;;;;;;;;;
2021/01/15 14:54:31;;;;;;;;;;;;;;;;;;;;;
2021/01/15 15:00:42;;;;;;;6.20;4.60;;;3.50;77.90;;;;;;5023472;28;20056;-95
2021/01/15 15:51:08;;;;;;;5.40;3.80;;;3.70;77.70;;;;;;5011171;28;20046;-93
2021/01/15 15:54:38;;;;;;;;;;;;;;;;;;;;;
2021/01/15 15:57:17;;;;;;;6.57;4.20;;;3.70;77.60;;;;;;4988352;28;20042;-96
2021/01/15 16:00:17;;;;;;;;;;;;;;;;;;;;;
2021/01/15 16:02:58;;;;;;;7.10;4.45;;;3.80;77.50;;;;;;4990523;28;20078;-96
2021/01/15 16:05:26;;;;;;;6.95;4.30;;;3.90;77.50;;;;;;4971514;28;20465;-95
2021/01/15 16:07:55;;;;;;;6.40;4.35;;;3.70;77.50;;;;;;4963686;28;20030;-94
2021/01/15 16:11:14;;;;;;;6.45;4.57;;;3.70;77.60;;;;;;4984597;28;20092;-95
2021/01/15 16:14:36;;;;;;;;;;;;;;;;;;;;;
2021/01/15 16:17:13;;;;;;;8.02;4.78;;;3.60;77.80;;;;;;4977456;28;20098;-95
2021/01/15 16:19:43;;;;;;;6.55;4.50;;;3.70;77.90;;;;;;4981864;28;20019;-94
2021/01/15 16:22:16;;;;;;;7.13;4.75;;;3.60;78.00;;;;;;4974965;28;20054;-94
2021/01/15 16:24:41;;;;;;;7.38;4.82;;;3.50;78.00;;;;;;4975847;28;20034;-93
2021/01/15 16:27:19;;;;;;;6.57;4.80;;;3.50;78.00;;;;;;4974296;28;20037;-94
2021/01/15 16:33:19;;;;;;;7.03;4.40;;;3.50;78.10;;;;;;4965498;28;20035;-95
2021/01/15 16:38:55;;;;;;;;;;;;;;;;;;;;;
2021/01/15 16:41:52;;;;;;;7.90;5.10;;;3.50;78.20;;;;;;4979803;28;20081;-96
2021/01/15 16:47:45;;;;;;;5.40;3.97;;;3.40;78.80;;;;;;5006874;28;20141;-96
2021/01/15 16:53:17;;;;;;;7.47;4.93;;;3.40;78.20;;;;;;5085524;22;20053;-96
2021/01/15 16:56:10;;;;;;;6.55;4.28;;;3.50;78.20;;;;;;4995148;28;20105;-95
2021/01/15 16:59:14;;;;;;;5.93;3.85;;;3.60;78.20;;;;;;5018702;28;20046;-96
2021/01/15 17:14:42;;;;;;;9.57;5.90;;;3.60;78.10;;;;;;4998594;28;20057;-93
2021/01/15 17:17:08;;;;;;;8.40;5.95;;;3.60;78.10;;;;;;4981089;28;20038;-93
2021/01/15 17:19:35;;;;;;;7.80;5.80;;;3.60;78.10;;;;;;5011512;28;20026;-96
2021/01/15 17:22:04;;;;;;;8.50;5.85;;;3.60;78.00;;;;;;5015826;28;20014;-95
2021/01/15 17:24:30;;;;;;;6.95;5.10;;;3.60;77.90;;;;;;5013255;28;20030;-96
2021/01/15 17:26:55;;;;;;;6.97;5.22;;;3.60;77.90;;;;;;5014102;28;20068;-95
2021/01/15 17:29:23;;;;;;;7.60;5.43;;;3.50;77.90;;;;;;4995217;28;20031;-96
2021/01/15 17:31:51;;;;;;;6.97;4.93;;;3.60;77.90;;;;;;4990775;28;20016;-96
2021/01/15 17:34:22;;;;;;;8.05;5.22;;;3.60;77.90;;;;;;4997502;28;20156;-96
2021/01/15 17:36:55;;;;;;;7.22;4.95;;;3.60;78.00;;;;;;4988633;28;20026;-96
2021/01/15 17:39:21;;;;;;;7.78;4.75;;;3.60;78.10;;;;;;4989558;28;20120;-96
2021/01/15 17:41:48;;;;;;;7.40;5.18;;;3.60;78.20;;;;;;5010470;28;20030;-95
2021/01/15 17:44:19;;;;;;;5.80;4.55;;;3.60;78.20;;;;;;4995382;28;20058;-96
2021/01/15 17:46:45;;;;;;;7.53;5.00;;;3.50;78.30;;;;;;4999132;28;20053;-96
2021/01/15 17:49:12;;;;;;;7.15;4.45;;;3.50;78.30;;;;;;4999066;28;20018;-96
2021/01/15 17:51:40;;;;;;;8.02;5.22;;;3.40;78.40;;;;;;4999654;28;20026;-95
2021/01/15 17:54:07;;;;;;;8.45;5.38;;;3.40;78.40;;;;;;4990468;28;20026;-96
2021/01/15 17:56:33;;;;;;;6.55;4.70;;;3.50;78.60;;;;;;4986213;28;20034;-95
2021/01/15 17:58:59;;;;;;;7.65;5.10;;;3.40;78.60;;;;;;4987624;28;20447;-95
2021/01/15 18:01:29;;;;;;;8.07;5.00;;;3.40;78.50;;;;;;5000921;28;20113;-95
2021/01/15 18:04:18;;;;;;;6.32;4.32;;;3.40;78.50;;;;;;4986819;28;20535;-96
2021/01/15 18:06:43;;;;;;;6.38;4.72;;;3.50;78.50;;;;;;4999585;28;20027;-95
2021/01/15 18:09:08;;;;;;;7.30;4.65;;;3.40;78.50;;;;;;4999568;28;20019;-95
2021/01/15 18:11:34;;;;;;;7.97;4.43;;;3.40;78.50;;;;;;5010606;28;20014;-95
2021/01/15 18:14:10;;;;;;;;;;;;;;;;;;;;;
2021/01/15 18:17:14;;;;;;;6.78;4.57;;;3.40;78.60;;;;;;4998140;28;20046;-96
2021/01/15 18:19:40;;;;;;;6.80;4.13;;;3.50;78.60;;;;;;4959290;28;20484;-96
2021/01/15 18:22:08;;;;;;;7.05;4.18;;;3.50;78.50;;;;;;4984189;28;20022;-96
2021/01/15 18:24:34;;;;;;;5.90;4.38;;;3.50;78.50;;;;;;5005623;28;20053;-94
2021/01/15 18:26:59;;;;;;;5.75;4.15;;;3.50;78.50;;;;;;4978351;28;20253;-93
2021/01/15 18:29:39;;;;;;;7.68;5.35;;;3.60;78.40;;;;;;4998570;28;20069;-95
2021/01/15 18:32:07;;;;;;;8.52;5.38;;;3.60;78.20;;;;;;4996304;28;20030;-95
2021/01/15 18:34:34;;;;;;;6.47;4.55;;;3.80;78.20;;;;;;4995970;28;20025;-94
2021/01/15 18:36:59;;;;;;;7.40;4.82;;;3.70;78.10;;;;;;5003516;28;20042;-95
2021/01/15 18:39:28;;;;;;;6.50;4.50;;;3.60;78.00;;;;;;5011587;28;20030;-96
2021/01/15 18:41:59;;;;;;;6.80;4.85;;;3.60;78.10;;;;;;4988597;28;20094;-94
2021/01/15 18:44:48;;;;;;;6.93;5.15;;;3.60;78.20;;;;;;4995701;28;20030;-96
2021/01/15 18:47:15;;;;;;;6.57;4.70;;;3.70;78.20;;;;;;5002878;28;20035;-95
2021/01/15 18:49:41;;;;;;;6.93;4.30;;;3.60;78.10;;;;;;4993914;28;20018;-96
2021/01/15 18:52:07;;;;;;;7.88;5.97;;;3.70;78.20;;;;;;4997580;28;20074;-96
2021/01/15 18:55:10;;;;;;;11.18;7.60;;;3.60;78.10;;;;;;5015367;28;20041;-96
2021/01/15 18:58:00;;;;;;;10.60;7.45;;;3.60;78.20;;;;;;4975210;28;20046;-96
2021/01/15 19:00:30;;;;;;;7.03;4.57;;;3.60;78.10;;;;;;5005542;28;20030;-96
2021/01/15 19:02:56;;;;;;;8.75;5.55;;;3.50;78.00;;;;;;4985156;28;20062;-96
2021/01/15 19:05:25;;;;;;;6.05;4.50;;;3.50;78.10;;;;;;5003753;28;20034;-96
2021/01/15 19:07:52;;;;;;;8.02;5.30;;;3.40;78.20;;;;;;4980828;28;20137;-96